Dades meteomassalio
Diari Summary for Febrer 10, 2018 Units:  Both    English   Metric
« Previous Day
Next Day »
Diari Semanal Mensual Anual Personalitzat
  Maxima: Minima: Mijana:
Temperatura: TemperatureC °F /  -17.8 °C 2.8 °F /  -16.2 °C 5.4 °F /  -14.8 °C
Rosada: DewpointC °F /  -17.8 °C -1.2 °F /  -18.4 °C 0.4 °F /  -17.6 °C
Humitat: Humidity % 54 % 70 %
Velocitat del vent: WindSpeedKMH mph /  0 km/h - 32.5 mph /  52.3 km/h
Racha vent: WindSpeedGustKMH mph /  0 km/h - -
Vent:- - WNW
Pressio: PressurehPa in /  0 hPa 1020.5 in /  34554.1 hPa -
Pluja: 0.0 in /  0 mm    
Historical Graphs
 
 
Tabular Data for Febrer 10, 2018
Time Temperature Dew Point Pressure Wind Wind Speed Wind Gust Humidity Rainfall Rate (Hourly) solar Conditions
TemperatureC °F /  -17.8 °C DewpointC °F /  -17.8 °C PressurehPa in /  0 hPa Calm     Humidity % HourlyPrecipMM in /  0 mm SolarRadiationWatts/m^2 W/m2 Conditions
00:04 5.0 °F /  -15 °C 1.7 °F /  -16.8 °C 1022.2 in /  34611.7 hPa NNW 33.8 mph /  54.4 km/h 33.8 mph /  54.4 km/h 79 % 0.0 in /  0 mm 0.0 W/m2 RA
00:09 5.0 °F /  -15 °C 1.7 °F /  -16.8 °C 1022.6 in /  34625.2 hPa NNW 42.6 mph /  68.6 km/h 42.6 mph /  68.6 km/h 79 % 0.0 in /  0 mm 0.0 W/m2 CLR
00:14 5.0 °F /  -15 °C 1.7 °F /  -16.8 °C 1022.6 in /  34625.2 hPa NW 24.1 mph /  38.8 km/h 24.1 mph /  38.8 km/h 79 % 0.0 in /  0 mm 0.0 W/m2 CLR
00:19 5.0 °F /  -15 °C 1.5 °F /  -16.9 °C 1022.6 in /  34625.2 hPa NNW 37.0 mph /  59.5 km/h 37.0 mph /  59.5 km/h 78 % 0.0 in /  0 mm 0.0 W/m2 CLR
00:24 5.0 °F /  -15 °C 1.3 °F /  -17.1 °C 1022.9 in /  34635.4 hPa North 40.2 mph /  64.7 km/h 40.2 mph /  64.7 km/h 77 % 0.0 in /  0 mm 0.0 W/m2 CLR
00:29 5.0 °F /  -15 °C 1.1 °F /  -17.2 °C 1022.9 in /  34635.4 hPa NNW 35.2 mph /  56.6 km/h 35.2 mph /  56.6 km/h 76 % 0.0 in /  0 mm 0.0 W/m2 CLR
00:34 4.4 °F /  -15.3 °C 0.6 °F /  -17.4 °C 1022.9 in /  34635.4 hPa North 35.4 mph /  57 km/h 35.4 mph /  57 km/h 76 % 0.0 in /  0 mm 0.0 W/m2 CLR
00:39 4.4 °F /  -15.3 °C 0.4 °F /  -17.6 °C 1022.9 in /  34635.4 hPa North 35.2 mph /  56.6 km/h 35.2 mph /  56.6 km/h 75 % 0.0 in /  0 mm 0.0 W/m2 CLR
00:44 4.4 °F /  -15.3 °C 0.4 °F /  -17.6 °C 1022.9 in /  34635.4 hPa NNW 33.8 mph /  54.4 km/h 33.8 mph /  54.4 km/h 75 % 0.0 in /  0 mm 0.0 W/m2 CLR
00:49 4.4 °F /  -15.3 °C 0.4 °F /  -17.6 °C 1022.9 in /  34635.4 hPa NNW 33.3 mph /  53.6 km/h 33.3 mph /  53.6 km/h 75 % 0.0 in /  0 mm 0.0 W/m2 CLR
00:54 4.4 °F /  -15.3 °C 0.4 °F /  -17.6 °C 1022.9 in /  34635.4 hPa NW 46.3 mph /  74.5 km/h 46.3 mph /  74.5 km/h 75 % 0.0 in /  0 mm 0.0 W/m2 CLR
00:59 4.4 °F /  -15.3 °C 0.4 °F /  -17.6 °C 1022.9 in /  34635.4 hPa NNW 37.0 mph /  59.5 km/h 37.0 mph /  59.5 km/h 75 % 0.0 in /  0 mm 0.0 W/m2 CLR
01:04 4.4 °F /  -15.3 °C 0.4 °F /  -17.6 °C 1022.9 in /  34635.4 hPa NW 40.7 mph /  65.5 km/h 40.7 mph /  65.5 km/h 75 % 0.0 in /  0 mm 0.0 W/m2 CLR
01:09 4.4 °F /  -15.3 °C 0.4 °F /  -17.6 °C 1022.9 in /  34635.4 hPa NW 37.0 mph /  59.5 km/h 37.0 mph /  59.5 km/h 75 % 0.0 in /  0 mm 0.0 W/m2 CLR
01:14 4.4 °F /  -15.3 °C 0.6 °F /  -17.4 °C 1022.9 in /  34635.4 hPa North 33.3 mph /  53.6 km/h 33.3 mph /  53.6 km/h 76 % 0.0 in /  0 mm 0.0 W/m2 CLR
01:19 4.4 °F /  -15.3 °C 0.6 °F /  -17.4 °C 1022.9 in /  34635.4 hPa North 33.3 mph /  53.6 km/h 33.3 mph /  53.6 km/h 76 % 0.0 in /  0 mm 0.0 W/m2 CLR
01:24 4.4 °F /  -15.3 °C 0.6 °F /  -17.4 °C 1022.9 in /  34635.4 hPa NW 29.6 mph /  47.6 km/h 29.6 mph /  47.6 km/h 76 % 0.0 in /  0 mm 0.0 W/m2 CLR
01:29 4.4 °F /  -15.3 °C 0.4 °F /  -17.6 °C 1023.2 in /  34645.6 hPa NNW 46.3 mph /  74.5 km/h 46.3 mph /  74.5 km/h 75 % 0.0 in /  0 mm 0.0 W/m2 CLR
01:34 4.4 °F /  -15.3 °C 0.4 °F /  -17.6 °C 1023.2 in /  34645.6 hPa NNW 38.9 mph /  62.6 km/h 38.9 mph /  62.6 km/h 75 % 0.0 in /  0 mm 0.0 W/m2 CLR
01:39 4.4 °F /  -15.3 °C 0.4 °F /  -17.6 °C 1022.9 in /  34635.4 hPa NNW 37.0 mph /  59.5 km/h 37.0 mph /  59.5 km/h 75 % 0.0 in /  0 mm 0.0 W/m2 CLR
01:44 4.4 °F /  -15.3 °C 0.4 °F /  -17.6 °C 1022.9 in /  34635.4 hPa North 41.8 mph /  67.3 km/h 41.8 mph /  67.3 km/h 75 % 0.0 in /  0 mm 0.0 W/m2 CLR
01:49 3.9 °F /  -15.6 °C -0.2 °F /  -17.9 °C 1022.9 in /  34635.4 hPa NW 46.3 mph /  74.5 km/h 46.3 mph /  74.5 km/h 75 % 0.0 in /  0 mm 0.0 W/m2 CLR
01:54 3.9 °F /  -15.6 °C -0.2 °F /  -17.9 °C 1022.9 in /  34635.4 hPa NW 44.4 mph /  71.5 km/h 44.4 mph /  71.5 km/h 75 % 0.0 in /  0 mm 0.0 W/m2 CLR
01:59 3.9 °F /  -15.6 °C -0.2 °F /  -17.9 °C 1022.9 in /  34635.4 hPa NNW 35.4 mph /  57 km/h 35.4 mph /  57 km/h 75 % 0.0 in /  0 mm 0.0 W/m2 CLR
02:04 3.9 °F /  -15.6 °C -0.2 °F /  -17.9 °C 1022.9 in /  34635.4 hPa NNW 35.2 mph /  56.6 km/h 35.2 mph /  56.6 km/h 75 % 0.0 in /  0 mm 0.0 W/m2 CLR
02:09 3.9 °F /  -15.6 °C -0.3 °F /  -17.9 °C 1022.9 in /  34635.4 hPa NW 33.8 mph /  54.4 km/h 33.8 mph /  54.4 km/h 74 % 0.0 in /  0 mm 0.0 W/m2 CLR
02:14 3.9 °F /  -15.6 °C -0.3 °F /  -17.9 °C 1022.9 in /  34635.4 hPa NNW 35.4 mph /  57 km/h 35.4 mph /  57 km/h 74 % 0.0 in /  0 mm 0.0 W/m2 CLR
02:20 3.9 °F /  -15.6 °C -0.3 °F /  -17.9 °C 1022.9 in /  34635.4 hPa NNW 22.2 mph /  35.7 km/h 22.2 mph /  35.7 km/h 74 % 0.0 in /  0 mm 0.0 W/m2 CLR
02:25 3.9 °F /  -15.6 °C -0.2 °F /  -17.9 °C 1022.9 in /  34635.4 hPa North 38.6 mph /  62.1 km/h 38.6 mph /  62.1 km/h 75 % 0.0 in /  0 mm 0.0 W/m2 CLR
02:30 3.9 °F /  -15.6 °C -0.2 °F /  -17.9 °C 1022.9 in /  34635.4 hPa NW 27.8 mph /  44.7 km/h 27.8 mph /  44.7 km/h 75 % 0.0 in /  0 mm 0.0 W/m2 CLR
02:35 3.9 °F /  -15.6 °C -0.2 °F /  -17.9 °C 1022.9 in /  34635.4 hPa NNW 31.5 mph /  50.7 km/h 34.6 mph /  55.7 km/h 75 % 0.0 in /  0 mm 0.0 W/m2 CLR
02:40 3.9 °F /  -15.6 °C -0.2 °F /  -17.9 °C 1022.9 in /  34635.4 hPa NNW 31.5 mph /  50.7 km/h 31.5 mph /  50.7 km/h 75 % 0.0 in /  0 mm 0.0 W/m2 CLR
02:45 3.3 °F /  -15.9 °C -0.7 °F /  -18.2 °C 1022.9 in /  34635.4 hPa WNW 31.5 mph /  50.7 km/h 31.5 mph /  50.7 km/h 75 % 0.0 in /  0 mm 0.0 W/m2 CLR
02:50 3.3 °F /  -15.9 °C -0.9 °F /  -18.3 °C 1022.9 in /  34635.4 hPa NW 35.4 mph /  57 km/h 35.4 mph /  57 km/h 74 % 0.0 in /  0 mm 0.0 W/m2 CLR
02:55 3.9 °F /  -15.6 °C -0.3 °F /  -17.9 °C 1022.9 in /  34635.4 hPa NNW 29.6 mph /  47.6 km/h 29.6 mph /  47.6 km/h 74 % 0.0 in /  0 mm 0.0 W/m2 CLR
03:00 3.9 °F /  -15.6 °C -0.3 °F /  -17.9 °C 1022.9 in /  34635.4 hPa NW 24.1 mph /  38.8 km/h 24.1 mph /  38.8 km/h 74 % 0.0 in /  0 mm 0.0 W/m2 CLR
03:05 3.3 °F /  -15.9 °C -0.9 °F /  -18.3 °C 1022.9 in /  34635.4 hPa NW 25.9 mph /  41.7 km/h 25.9 mph /  41.7 km/h 74 % 0.0 in /  0 mm 0.0 W/m2 CLR
03:10 3.3 °F /  -15.9 °C -0.9 °F /  -18.3 °C 1022.6 in /  34625.2 hPa NNW 40.7 mph /  65.5 km/h 40.7 mph /  65.5 km/h 74 % 0.0 in /  0 mm 0.0 W/m2 CLR
03:15 3.3 °F /  -15.9 °C -0.7 °F /  -18.2 °C 1022.6 in /  34625.2 hPa North 37.0 mph /  59.5 km/h 37.0 mph /  59.5 km/h 75 % 0.0 in /  0 mm 0.0 W/m2 CLR
03:20 3.3 °F /  -15.9 °C -0.9 °F /  -18.3 °C 1022.6 in /  34625.2 hPa North 38.9 mph /  62.6 km/h 38.9 mph /  62.6 km/h 74 % 0.0 in /  0 mm 0.0 W/m2 CLR
03:25 3.3 °F /  -15.9 °C -0.9 °F /  -18.3 °C 1022.2 in /  34611.7 hPa NNW 46.3 mph /  74.5 km/h 46.3 mph /  74.5 km/h 74 % 0.0 in /  0 mm 0.0 W/m2 CLR
03:30 3.3 °F /  -15.9 °C -0.9 °F /  -18.3 °C 1022.2 in /  34611.7 hPa NNW 42.6 mph /  68.6 km/h 42.6 mph /  68.6 km/h 74 % 0.0 in /  0 mm 0.0 W/m2 CLR
03:35 3.3 °F /  -15.9 °C -0.9 °F /  -18.3 °C 1022.2 in /  34611.7 hPa NNW 46.3 mph /  74.5 km/h 46.3 mph /  74.5 km/h 74 % 0.0 in /  0 mm 0.0 W/m2 CLR
03:40 3.3 °F /  -15.9 °C -0.9 °F /  -18.3 °C 1022.2 in /  34611.7 hPa NNW 27.8 mph /  44.7 km/h 29.6 mph /  47.6 km/h 74 % 0.0 in /  0 mm 0.0 W/m2 CLR
03:45 3.3 °F /  -15.9 °C -0.9 °F /  -18.3 °C 1022.2 in /  34611.7 hPa North 37.0 mph /  59.5 km/h 37.0 mph /  59.5 km/h 74 % 0.0 in /  0 mm 0.0 W/m2 CLR
03:50 3.3 °F /  -15.9 °C -0.9 °F /  -18.3 °C 1021.9 in /  34601.5 hPa North 35.2 mph /  56.6 km/h 35.2 mph /  56.6 km/h 74 % 0.0 in /  0 mm 0.0 W/m2 CLR
03:55 3.3 °F /  -15.9 °C -0.9 °F /  -18.3 °C 1021.9 in /  34601.5 hPa North 32.2 mph /  51.8 km/h 32.2 mph /  51.8 km/h 74 % 0.0 in /  0 mm 0.0 W/m2 CLR
04:00 3.3 °F /  -15.9 °C -0.7 °F /  -18.2 °C 1021.9 in /  34601.5 hPa North 31.5 mph /  50.7 km/h 31.5 mph /  50.7 km/h 75 % 0.0 in /  0 mm 0.0 W/m2 CLR
04:05 3.3 °F /  -15.9 °C -0.7 °F /  -18.2 °C 1022.2 in /  34611.7 hPa NNW 31.5 mph /  50.7 km/h 31.5 mph /  50.7 km/h 75 % 0.0 in /  0 mm 0.0 W/m2 CLR
04:10 3.3 °F /  -15.9 °C -0.7 °F /  -18.2 °C 1022.2 in /  34611.7 hPa NW 35.4 mph /  57 km/h 35.4 mph /  57 km/h 75 % 0.0 in /  0 mm 0.0 W/m2 CLR
04:15 3.3 °F /  -15.9 °C -0.7 °F /  -18.2 °C 1022.2 in /  34611.7 hPa NW 24.1 mph /  38.8 km/h 24.1 mph /  38.8 km/h 75 % 0.0 in /  0 mm 0.0 W/m2 CLR
04:20 3.3 °F /  -15.9 °C -0.7 °F /  -18.2 °C 1022.2 in /  34611.7 hPa NNW 42.6 mph /  68.6 km/h 42.6 mph /  68.6 km/h 75 % 0.0 in /  0 mm 0.0 W/m2 CLR
04:25 3.3 °F /  -15.9 °C -0.7 °F /  -18.2 °C 1022.2 in /  34611.7 hPa NNW 31.5 mph /  50.7 km/h 31.5 mph /  50.7 km/h 75 % 0.0 in /  0 mm 0.0 W/m2 CLR
04:30 3.3 °F /  -15.9 °C -0.7 °F /  -18.2 °C 1022.2 in /  34611.7 hPa NNW 40.7 mph /  65.5 km/h 40.7 mph /  65.5 km/h 75 % 0.0 in /  0 mm 0.0 W/m2 CLR
04:35 3.3 °F /  -15.9 °C -0.7 °F /  -18.2 °C 1022.2 in /  34611.7 hPa North 31.5 mph /  50.7 km/h 31.5 mph /  50.7 km/h 75 % 0.0 in /  0 mm 0.0 W/m2 CLR
04:40 3.3 °F /  -15.9 °C -0.7 °F /  -18.2 °C 1022.2 in /  34611.7 hPa NW 27.8 mph /  44.7 km/h 27.8 mph /  44.7 km/h 75 % 0.0 in /  0 mm 0.0 W/m2 CLR
04:45 3.3 °F /  -15.9 °C -0.7 °F /  -18.2 °C 1022.2 in /  34611.7 hPa NNW 35.2 mph /  56.6 km/h 35.2 mph /  56.6 km/h 75 % 0.0 in /  0 mm 0.0 W/m2 CLR
04:50 3.3 °F /  -15.9 °C -0.7 °F /  -18.2 °C 1022.2 in /  34611.7 hPa North 33.3 mph /  53.6 km/h 33.3 mph /  53.6 km/h 75 % 0.0 in /  0 mm 0.0 W/m2 CLR
04:55 3.3 °F /  -15.9 °C -0.7 °F /  -18.2 °C 1022.2 in /  34611.7 hPa North 43.4 mph /  69.8 km/h 43.4 mph /  69.8 km/h 75 % 0.0 in /  0 mm 0.0 W/m2 CLR
05:00 3.3 °F /  -15.9 °C -0.7 °F /  -18.2 °C 1022.2 in /  34611.7 hPa NNW 42.6 mph /  68.6 km/h 42.6 mph /  68.6 km/h 75 % 0.0 in /  0 mm 0.0 W/m2 CLR
05:05 3.3 °F /  -15.9 °C -0.5 °F /  -18.1 °C 1022.2 in /  34611.7 hPa NNW 35.2 mph /  56.6 km/h 35.2 mph /  56.6 km/h 76 % 0.0 in /  0 mm 0.0 W/m2 CLR
05:10 3.3 °F /  -15.9 °C -0.5 °F /  -18.1 °C 1022.2 in /  34611.7 hPa North 40.7 mph /  65.5 km/h 40.7 mph /  65.5 km/h 76 % 0.0 in /  0 mm 0.0 W/m2 CLR
05:15 3.3 °F /  -15.9 °C -0.5 °F /  -18.1 °C 1022.2 in /  34611.7 hPa NW 33.3 mph /  53.6 km/h 33.3 mph /  53.6 km/h 76 % 0.0 in /  0 mm 0.0 W/m2 CLR
05:20 3.3 °F /  -15.9 °C -0.5 °F /  -18.1 °C 1022.6 in /  34625.2 hPa NNW 31.5 mph /  50.7 km/h 31.5 mph /  50.7 km/h 76 % 0.0 in /  0 mm 0.0 W/m2 CLR
05:25 3.3 °F /  -15.9 °C -0.5 °F /  -18.1 °C 1022.6 in /  34625.2 hPa North 35.2 mph /  56.6 km/h 35.2 mph /  56.6 km/h 76 % 0.0 in /  0 mm 0.0 W/m2 CLR
05:30 3.3 °F /  -15.9 °C -0.5 °F /  -18.1 °C 1022.6 in /  34625.2 hPa North 27.8 mph /  44.7 km/h 27.8 mph /  44.7 km/h 76 % 0.0 in /  0 mm 0.0 W/m2 CLR
05:35 3.3 °F /  -15.9 °C -0.5 °F /  -18.1 °C 1022.6 in /  34625.2 hPa North 40.7 mph /  65.5 km/h 40.7 mph /  65.5 km/h 76 % 0.0 in /  0 mm 0.0 W/m2 CLR
05:40 3.3 °F /  -15.9 °C -0.5 °F /  -18.1 °C 1022.6 in /  34625.2 hPa NNW 31.5 mph /  50.7 km/h 31.5 mph /  50.7 km/h 76 % 0.0 in /  0 mm 0.0 W/m2 CLR
05:45 3.3 °F /  -15.9 °C -0.5 °F /  -18.1 °C 1022.6 in /  34625.2 hPa NNW 40.7 mph /  65.5 km/h 40.7 mph /  65.5 km/h 76 % 0.0 in /  0 mm 0.0 W/m2 CLR
05:50 2.8 °F /  -16.2 °C -1.1 °F /  -18.4 °C 1022.6 in /  34625.2 hPa North 30.6 mph /  49.2 km/h 30.6 mph /  49.2 km/h 76 % 0.0 in /  0 mm 0.0 W/m2 CLR
05:55 2.8 °F /  -16.2 °C -1.1 °F /  -18.4 °C 1022.2 in /  34611.7 hPa NNW 42.6 mph /  68.6 km/h 42.6 mph /  68.6 km/h 76 % 0.0 in /  0 mm 0.0 W/m2 CLR
06:00 2.8 °F /  -16.2 °C -1.1 °F /  -18.4 °C 1022.6 in /  34625.2 hPa NNW 42.6 mph /  68.6 km/h 42.6 mph /  68.6 km/h 76 % 0.0 in /  0 mm 0.0 W/m2 CLR
06:05 2.8 °F /  -16.2 °C -0.8 °F /  -18.2 °C 1022.2 in /  34611.7 hPa North 29.6 mph /  47.6 km/h 29.6 mph /  47.6 km/h 77 % 0.0 in /  0 mm 0.0 W/m2 CLR
06:10 2.8 °F /  -16.2 °C -0.8 °F /  -18.2 °C 1022.6 in /  34625.2 hPa NNW 24.1 mph /  38.8 km/h 24.1 mph /  38.8 km/h 77 % 0.0 in /  0 mm 0.0 W/m2 CLR
06:15 2.8 °F /  -16.2 °C -0.8 °F /  -18.2 °C 1022.2 in /  34611.7 hPa NNW 25.9 mph /  41.7 km/h 25.9 mph /  41.7 km/h 77 % 0.0 in /  0 mm 0.0 W/m2 CLR
06:20 2.8 °F /  -16.2 °C -0.8 °F /  -18.2 °C 1022.2 in /  34611.7 hPa North 27.8 mph /  44.7 km/h 27.8 mph /  44.7 km/h 77 % 0.0 in /  0 mm 0.0 W/m2 CLR
06:25 2.8 °F /  -16.2 °C -1.1 °F /  -18.4 °C 1022.2 in /  34611.7 hPa NNW 31.5 mph /  50.7 km/h 31.5 mph /  50.7 km/h 76 % 0.0 in /  0 mm 0.0 W/m2 CLR
06:30 2.8 °F /  -16.2 °C -1.2 °F /  -18.4 °C 1022.2 in /  34611.7 hPa NW 27.8 mph /  44.7 km/h 27.8 mph /  44.7 km/h 75 % 0.0 in /  0 mm 0.0 W/m2 CLR
06:35 2.8 °F /  -16.2 °C -1.1 °F /  -18.4 °C 1022.2 in /  34611.7 hPa NNW 20.4 mph /  32.8 km/h 20.4 mph /  32.8 km/h 76 % 0.0 in /  0 mm 0.0 W/m2 CLR
06:40 2.8 °F /  -16.2 °C -1.1 °F /  -18.4 °C 1022.2 in /  34611.7 hPa NNW 33.8 mph /  54.4 km/h 33.8 mph /  54.4 km/h 76 % 0.0 in /  0 mm 0.0 W/m2 CLR
06:45 2.8 °F /  -16.2 °C -1.2 °F /  -18.4 °C 1022.2 in /  34611.7 hPa NW 37.0 mph /  59.5 km/h 37.0 mph /  59.5 km/h 75 % 0.0 in /  0 mm 0.0 W/m2 CLR
06:50 2.8 °F /  -16.2 °C -1.2 °F /  -18.4 °C 1022.2 in /  34611.7 hPa NNW 22.5 mph /  36.2 km/h 22.5 mph /  36.2 km/h 75 % 0.0 in /  0 mm 0.0 W/m2 CLR
06:55 2.8 °F /  -16.2 °C -1.1 °F /  -18.4 °C 1022.2 in /  34611.7 hPa North 29.6 mph /  47.6 km/h 29.6 mph /  47.6 km/h 76 % 0.0 in /  0 mm 0.0 W/m2 CLR
07:00 2.8 °F /  -16.2 °C -1.1 °F /  -18.4 °C 1022.2 in /  34611.7 hPa North 31.5 mph /  50.7 km/h 31.5 mph /  50.7 km/h 76 % 0.0 in /  0 mm 0.0 W/m2 CLR
07:05 2.8 °F /  -16.2 °C -0.8 °F /  -18.2 °C 1021.9 in /  34601.5 hPa North 27.8 mph /  44.7 km/h 27.8 mph /  44.7 km/h 77 % 0.0 in /  0 mm 0.0 W/m2 CLR
07:10 2.8 °F /  -16.2 °C -0.8 °F /  -18.2 °C 1021.9 in /  34601.5 hPa NNW 37.0 mph /  59.5 km/h 37.0 mph /  59.5 km/h 77 % 0.0 in /  0 mm 0.0 W/m2 CLR
07:15 2.8 °F /  -16.2 °C -0.8 °F /  -18.2 °C 1021.9 in /  34601.5 hPa NW 29.6 mph /  47.6 km/h 29.6 mph /  47.6 km/h 77 % 0.0 in /  0 mm 0.0 W/m2 CLR
07:20 2.8 °F /  -16.2 °C -0.8 °F /  -18.2 °C 1022.2 in /  34611.7 hPa NNW 37.0 mph /  59.5 km/h 37.0 mph /  59.5 km/h 77 % 0.0 in /  0 mm 0.0 W/m2 CLR
07:25 2.8 °F /  -16.2 °C -0.8 °F /  -18.2 °C 1022.2 in /  34611.7 hPa NNW 24.1 mph /  38.8 km/h 24.1 mph /  38.8 km/h 77 % 0.0 in /  0 mm 0.0 W/m2 CLR
07:30 2.8 °F /  -16.2 °C -0.8 °F /  -18.2 °C 1022.2 in /  34611.7 hPa NNW 33.3 mph /  53.6 km/h 33.3 mph /  53.6 km/h 77 % 0.0 in /  0 mm 0.0 W/m2 CLR
07:35 2.8 °F /  -16.2 °C -0.8 °F /  -18.2 °C 1022.6 in /  34625.2 hPa North 35.2 mph /  56.6 km/h 35.2 mph /  56.6 km/h 77 % 0.0 in /  0 mm 0.0 W/m2 CLR
07:40 2.8 °F /  -16.2 °C -0.8 °F /  -18.2 °C 1022.6 in /  34625.2 hPa NNW 38.9 mph /  62.6 km/h 38.9 mph /  62.6 km/h 77 % 0.0 in /  0 mm 0.0 W/m2 CLR
07:45 2.8 °F /  -16.2 °C -0.8 °F /  -18.2 °C 1022.6 in /  34625.2 hPa North 31.5 mph /  50.7 km/h 31.5 mph /  50.7 km/h 77 % 0.0 in /  0 mm 0.0 W/m2 CLR
07:50 2.8 °F /  -16.2 °C -0.8 °F /  -18.2 °C 1022.6 in /  34625.2 hPa North 31.5 mph /  50.7 km/h 31.5 mph /  50.7 km/h 77 % 0.0 in /  0 mm 0.0 W/m2 CLR
07:55 2.8 °F /  -16.2 °C -0.7 °F /  -18.2 °C 1022.6 in /  34625.2 hPa North 25.9 mph /  41.7 km/h 25.9 mph /  41.7 km/h 78 % 0.0 in /  0 mm 0.0 W/m2 CLR
08:00 2.8 °F /  -16.2 °C -0.7 °F /  -18.2 °C 1022.6 in /  34625.2 hPa NNW 32.2 mph /  51.8 km/h 32.2 mph /  51.8 km/h 78 % 0.0 in /  0 mm 5.0 W/m2 OVC
08:05 2.8 °F /  -16.2 °C -0.7 °F /  -18.2 °C 1022.6 in /  34625.2 hPa North 24.1 mph /  38.8 km/h 24.1 mph /  38.8 km/h 78 % 0.0 in /  0 mm 7.0 W/m2 BKN
08:10 2.8 °F /  -16.2 °C -0.7 °F /  -18.2 °C 1022.9 in /  34635.4 hPa North 24.1 mph /  38.8 km/h 24.1 mph /  38.8 km/h 78 % 0.0 in /  0 mm 9.0 W/m2 BKN
08:15 2.8 °F /  -16.2 °C -0.7 °F /  -18.2 °C 1022.9 in /  34635.4 hPa NNW 31.5 mph /  50.7 km/h 31.5 mph /  50.7 km/h 78 % 0.0 in /  0 mm 12.0 W/m2 BKN
08:20 2.8 °F /  -16.2 °C -0.7 °F /  -18.2 °C 1022.9 in /  34635.4 hPa North 25.9 mph /  41.7 km/h 25.9 mph /  41.7 km/h 78 % 0.0 in /  0 mm 16.0 W/m2 BKN
08:25 2.8 °F /  -16.2 °C -0.7 °F /  -18.2 °C 1022.9 in /  34635.4 hPa North 25.9 mph /  41.7 km/h 25.9 mph /  41.7 km/h 78 % 0.0 in /  0 mm 18.0 W/m2 BKN
08:30 2.8 °F /  -16.2 °C -0.7 °F /  -18.2 °C 1022.9 in /  34635.4 hPa NNW 37.0 mph /  59.5 km/h 37.0 mph /  59.5 km/h 78 % 0.0 in /  0 mm 23.0 W/m2 BKN
08:35 2.8 °F /  -16.2 °C -0.7 °F /  -18.2 °C 1022.9 in /  34635.4 hPa North 29.6 mph /  47.6 km/h 29.6 mph /  47.6 km/h 78 % 0.0 in /  0 mm 30.0 W/m2 BKN
08:40 2.8 °F /  -16.2 °C -0.7 °F /  -18.2 °C 1023.2 in /  34645.6 hPa NNW 42.6 mph /  68.6 km/h 42.6 mph /  68.6 km/h 78 % 0.0 in /  0 mm 37.0 W/m2 BKN
08:46 2.8 °F /  -16.2 °C -0.8 °F /  -18.2 °C 1023.2 in /  34645.6 hPa North 37.0 mph /  59.5 km/h 37.0 mph /  59.5 km/h 77 % 0.0 in /  0 mm 46.0 W/m2 BKN
08:51 3.3 °F /  -15.9 °C -0.3 °F /  -17.9 °C 1023.2 in /  34645.6 hPa North 31.5 mph /  50.7 km/h 31.5 mph /  50.7 km/h 77 % 0.0 in /  0 mm 60.0 W/m2 SCT
08:56 3.3 °F /  -15.9 °C -0.3 °F /  -17.9 °C 1023.2 in /  34645.6 hPa NNW 29.6 mph /  47.6 km/h 29.6 mph /  47.6 km/h 77 % 0.0 in /  0 mm 77.0 W/m2 FEW
09:01 3.3 °F /  -15.9 °C -0.3 °F /  -17.9 °C 1022.9 in /  34635.4 hPa NNW 35.2 mph /  56.6 km/h 35.2 mph /  56.6 km/h 77 % 0.0 in /  0 mm 95.0 W/m2 CLR
09:06 3.3 °F /  -15.9 °C -0.3 °F /  -17.9 °C 1022.9 in /  34635.4 hPa NNW 33.3 mph /  53.6 km/h 33.3 mph /  53.6 km/h 77 % 0.0 in /  0 mm 113.0 W/m2 CLR
09:11 3.3 °F /  -15.9 °C -0.3 °F /  -17.9 °C 1022.9 in /  34635.4 hPa North 37.0 mph /  59.5 km/h 37.0 mph /  59.5 km/h 77 % 0.0 in /  0 mm 130.0 W/m2 CLR
09:16 3.3 °F /  -15.9 °C -0.5 °F /  -18.1 °C 1022.9 in /  34635.4 hPa North 33.3 mph /  53.6 km/h 33.3 mph /  53.6 km/h 76 % 0.0 in /  0 mm 134.0 W/m2 CLR
09:21 3.9 °F /  -15.6 °C 0.1 °F /  -17.7 °C 1023.2 in /  34645.6 hPa NNW 30.6 mph /  49.2 km/h 30.6 mph /  49.2 km/h 76 % 0.0 in /  0 mm 162.0 W/m2 CLR
09:26 3.9 °F /  -15.6 °C 0.1 °F /  -17.7 °C 1023.2 in /  34645.6 hPa North 27.4 mph /  44.1 km/h 27.4 mph /  44.1 km/h 76 % 0.0 in /  0 mm 183.0 W/m2 CLR
09:31 3.9 °F /  -15.6 °C 0.1 °F /  -17.7 °C 1022.9 in /  34635.4 hPa North 33.8 mph /  54.4 km/h 33.8 mph /  54.4 km/h 76 % 0.0 in /  0 mm 137.0 W/m2 CLR
09:36 3.9 °F /  -15.6 °C 0.1 °F /  -17.7 °C 1022.9 in /  34635.4 hPa NNW 35.2 mph /  56.6 km/h 35.2 mph /  56.6 km/h 76 % 0.0 in /  0 mm 218.0 W/m2 CLR
09:41 3.9 °F /  -15.6 °C -0.2 °F /  -17.9 °C 1022.9 in /  34635.4 hPa North 42.6 mph /  68.6 km/h 42.6 mph /  68.6 km/h 75 % 0.0 in /  0 mm 234.0 W/m2 CLR
09:46 4.4 °F /  -15.3 °C 0.6 °F /  -17.4 °C 1022.9 in /  34635.4 hPa North 30.6 mph /  49.2 km/h 30.6 mph /  49.2 km/h 76 % 0.0 in /  0 mm 250.0 W/m2 CLR
09:51 4.4 °F /  -15.3 °C 0.4 °F /  -17.6 °C 1022.9 in /  34635.4 hPa NNW 35.2 mph /  56.6 km/h 35.2 mph /  56.6 km/h 75 % 0.0 in /  0 mm 267.0 W/m2 CLR
09:56 4.4 °F /  -15.3 °C 0.2 °F /  -17.7 °C 1022.9 in /  34635.4 hPa NNW 37.0 mph /  59.5 km/h 37.0 mph /  59.5 km/h 74 % 0.0 in /  0 mm 281.0 W/m2 CLR
10:01 4.4 °F /  -15.3 °C 0.2 °F /  -17.7 °C 1023.2 in /  34645.6 hPa North 37.0 mph /  59.5 km/h 37.0 mph /  59.5 km/h 74 % 0.0 in /  0 mm 294.0 W/m2 CLR
10:06 5.0 °F /  -15 °C 0.6 °F /  -17.4 °C 1023.2 in /  34645.6 hPa NNW 38.9 mph /  62.6 km/h 38.9 mph /  62.6 km/h 73 % 0.0 in /  0 mm 308.0 W/m2 CLR
10:11 5.0 °F /  -15 °C 0.4 °F /  -17.6 °C 1022.9 in /  34635.4 hPa North 42.6 mph /  68.6 km/h 42.6 mph /  68.6 km/h 72 % 0.0 in /  0 mm 323.0 W/m2 CLR
10:16 5.0 °F /  -15 °C 0.4 °F /  -17.6 °C 1022.9 in /  34635.4 hPa North 50.0 mph /  80.5 km/h 50.0 mph /  80.5 km/h 72 % 0.0 in /  0 mm 336.0 W/m2 CLR
10:21 5.0 °F /  -15 °C 0.4 °F /  -17.6 °C 1022.9 in /  34635.4 hPa North 37.0 mph /  59.5 km/h 37.0 mph /  59.5 km/h 72 % 0.0 in /  0 mm 350.0 W/m2 CLR
10:26 5.6 °F /  -14.7 °C 0.7 °F /  -17.4 °C 1022.9 in /  34635.4 hPa NNW 48.3 mph /  77.7 km/h 48.3 mph /  77.7 km/h 71 % 0.0 in /  0 mm 362.0 W/m2 CLR
10:31 5.6 °F /  -14.7 °C 0.9 °F /  -17.3 °C 1022.9 in /  34635.4 hPa NNE 31.5 mph /  50.7 km/h 31.5 mph /  50.7 km/h 72 % 0.0 in /  0 mm 381.0 W/m2 CLR
10:36 5.6 °F /  -14.7 °C 0.7 °F /  -17.4 °C 1022.9 in /  34635.4 hPa North 42.6 mph /  68.6 km/h 42.6 mph /  68.6 km/h 71 % 0.0 in /  0 mm 401.0 W/m2 CLR
10:41 5.6 °F /  -14.7 °C 0.7 °F /  -17.4 °C 1022.6 in /  34625.2 hPa NNW 37.0 mph /  59.5 km/h 37.0 mph /  59.5 km/h 71 % 0.0 in /  0 mm 406.0 W/m2 CLR
10:46 5.6 °F /  -14.7 °C 0.5 °F /  -17.5 °C 1022.9 in /  34635.4 hPa NNE 38.9 mph /  62.6 km/h 38.9 mph /  62.6 km/h 70 % 0.0 in /  0 mm 424.0 W/m2 CLR
10:51 6.1 °F /  -14.4 °C 1.1 °F /  -17.2 °C 1022.9 in /  34635.4 hPa North 44.4 mph /  71.5 km/h 44.4 mph /  71.5 km/h 70 % 0.0 in /  0 mm 429.0 W/m2 CLR
10:56 6.1 °F /  -14.4 °C 0.8 °F /  -17.3 °C 1022.9 in /  34635.4 hPa North 51.8 mph /  83.4 km/h 51.8 mph /  83.4 km/h 69 % 0.0 in /  0 mm 436.0 W/m2 CLR
11:01 6.1 °F /  -14.4 °C 0.8 °F /  -17.3 °C 1022.9 in /  34635.4 hPa North 46.3 mph /  74.5 km/h 46.3 mph /  74.5 km/h 69 % 0.0 in /  0 mm 446.0 W/m2 CLR
11:06 6.1 °F /  -14.4 °C 1.1 °F /  -17.2 °C 1022.9 in /  34635.4 hPa NNE 27.8 mph /  44.7 km/h 27.8 mph /  44.7 km/h 70 % 0.0 in /  0 mm 459.0 W/m2 CLR
11:11 6.7 °F /  -14.1 °C 0.9 °F /  -17.3 °C 1023.2 in /  34645.6 hPa NNE 44.4 mph /  71.5 km/h 44.4 mph /  71.5 km/h 67 % 0.0 in /  0 mm 478.0 W/m2 CLR
11:16 6.7 °F /  -14.1 °C 1.4 °F /  -17 °C 1023.2 in /  34645.6 hPa NE 42.6 mph /  68.6 km/h 42.6 mph /  68.6 km/h 69 % 0.0 in /  0 mm 512.0 W/m2 CLR
11:21 6.7 °F /  -14.1 °C 0.9 °F /  -17.3 °C 1023.6 in /  34659.1 hPa NNE 37.0 mph /  59.5 km/h 37.0 mph /  59.5 km/h 67 % 0.0 in /  0 mm 98.0 W/m2 CLR
11:26 6.7 °F /  -14.1 °C 1.4 °F /  -17 °C 1023.6 in /  34659.1 hPa NNE 29.6 mph /  47.6 km/h 29.6 mph /  47.6 km/h 69 % 0.0 in /  0 mm 568.0 W/m2 CLR
11:31 6.7 °F /  -14.1 °C 1.2 °F /  -17.1 °C 1023.2 in /  34645.6 hPa North 27.4 mph /  44.1 km/h 27.4 mph /  44.1 km/h 68 % 0.0 in /  0 mm 519.0 W/m2 CLR
11:36 6.7 °F /  -14.1 °C 0.6 °F /  -17.4 °C 1023.6 in /  34659.1 hPa NNE 42.6 mph /  68.6 km/h 42.6 mph /  68.6 km/h 65 % 0.0 in /  0 mm 524.0 W/m2 CLR
11:41 6.7 °F /  -14.1 °C 0.8 °F /  -17.3 °C 1023.6 in /  34659.1 hPa North 42.6 mph /  68.6 km/h 42.6 mph /  68.6 km/h 66 % 0.0 in /  0 mm 564.0 W/m2 CLR
11:46 7.2 °F /  -13.8 °C 1.1 °F /  -17.2 °C 1023.2 in /  34645.6 hPa NNW 42.6 mph /  68.6 km/h 42.6 mph /  68.6 km/h 65 % 0.0 in /  0 mm 545.0 W/m2 CLR
11:51 7.8 °F /  -13.4 °C 1.8 °F /  -16.8 °C 1023.2 in /  34645.6 hPa NNE 42.6 mph /  68.6 km/h 42.6 mph /  68.6 km/h 66 % 0.0 in /  0 mm 526.0 W/m2 CLR
11:56 7.2 °F /  -13.8 °C 1.3 °F /  -17.1 °C 1023.2 in /  34645.6 hPa North 42.6 mph /  68.6 km/h 42.6 mph /  68.6 km/h 66 % 0.0 in /  0 mm 573.0 W/m2 CLR
12:01 7.8 °F /  -13.4 °C 2.1 °F /  -16.6 °C 1023.2 in /  34645.6 hPa NNW 42.6 mph /  68.6 km/h 42.6 mph /  68.6 km/h 67 % 0.0 in /  0 mm 596.0 W/m2 CLR
12:06 7.8 °F /  -13.4 °C 1.6 °F /  -16.9 °C 1023.2 in /  34645.6 hPa North 42.6 mph /  68.6 km/h 42.6 mph /  68.6 km/h 65 % 0.0 in /  0 mm 538.0 W/m2 CLR
12:11 7.8 °F /  -13.4 °C 1.6 °F /  -16.9 °C 1022.9 in /  34635.4 hPa NNW 48.1 mph /  77.4 km/h 48.1 mph /  77.4 km/h 65 % 0.0 in /  0 mm 621.0 W/m2 CLR
12:16 8.3 °F /  -13.2 °C 1.9 °F /  -16.7 °C 1022.9 in /  34635.4 hPa NNE 25.9 mph /  41.7 km/h 25.9 mph /  41.7 km/h 64 % 0.0 in /  0 mm 682.0 W/m2 CLR
12:21 7.8 °F /  -13.4 °C 0.5 °F /  -17.5 °C 1023.2 in /  34645.6 hPa NNE 35.2 mph /  56.6 km/h 35.2 mph /  56.6 km/h 60 % 0.0 in /  0 mm 151.0 W/m2 CLR
12:26 7.2 °F /  -13.8 °C -0.3 °F /  -17.9 °C 1022.9 in /  34635.4 hPa NNE 37.0 mph /  59.5 km/h 37.0 mph /  59.5 km/h 59 % 0.0 in /  0 mm 594.0 W/m2 CLR
12:31 8.3 °F /  -13.2 °C 0.6 °F /  -17.4 °C 1022.9 in /  34635.4 hPa NNE 33.8 mph /  54.4 km/h 33.8 mph /  54.4 km/h 58 % 0.0 in /  0 mm 615.0 W/m2 CLR
12:36 8.3 °F /  -13.2 °C 1.2 °F /  -17.1 °C 1022.9 in /  34635.4 hPa North 25.9 mph /  41.7 km/h 25.9 mph /  41.7 km/h 61 % 0.0 in /  0 mm 645.0 W/m2 CLR
12:41 7.8 °F /  -13.4 °C 0.3 °F /  -17.6 °C 1022.6 in /  34625.2 hPa NNE 25.9 mph /  41.7 km/h 25.9 mph /  41.7 km/h 59 % 0.0 in /  0 mm 675.0 W/m2 CLR
12:46 8.3 °F /  -13.2 °C -0.4 °F /  -18 °C 1022.6 in /  34625.2 hPa North 42.6 mph /  68.6 km/h 42.6 mph /  68.6 km/h 54 % 0.0 in /  0 mm 659.0 W/m2 CLR
12:51 8.9 °F /  -12.8 °C 0.1 °F /  -17.7 °C 1022.6 in /  34625.2 hPa NNW 48.3 mph /  77.7 km/h 48.3 mph /  77.7 km/h 54 % 0.0 in /  0 mm 684.0 W/m2 CLR
12:56 9.4 °F /  -12.6 °C 1.1 °F /  -17.2 °C 1022.6 in /  34625.2 hPa NNW 31.5 mph /  50.7 km/h 31.5 mph /  50.7 km/h 56 % 0.0 in /  0 mm 744.0 W/m2 CLR
13:01 8.3 °F /  -13.2 °C 1.0 °F /  -17.2 °C 1022.6 in /  34625.2 hPa NNW 41.8 mph /  67.3 km/h 41.8 mph /  67.3 km/h 60 % 0.0 in /  0 mm 134.0 W/m2 CLR
13:06 7.8 °F /  -13.4 °C 0.5 °F /  -17.5 °C 1022.6 in /  34625.2 hPa North 37.0 mph /  59.5 km/h 37.0 mph /  59.5 km/h 60 % 0.0 in /  0 mm 297.0 W/m2 CLR
13:11 8.9 °F /  -12.8 °C 2.2 °F /  -16.6 °C 1022.6 in /  34625.2 hPa North 31.5 mph /  50.7 km/h 31.5 mph /  50.7 km/h 63 % 0.0 in /  0 mm 812.0 W/m2 CLR
13:16 8.9 °F /  -12.8 °C 1.6 °F /  -16.9 °C 1022.6 in /  34625.2 hPa North 40.7 mph /  65.5 km/h 40.7 mph /  65.5 km/h 60 % 0.0 in /  0 mm 290.0 W/m2 CLR
13:21 8.3 °F /  -13.2 °C 1.4 °F /  -17 °C 1022.2 in /  34611.7 hPa North 25.7 mph /  41.4 km/h 25.7 mph /  41.4 km/h 62 % 0.0 in /  0 mm 816.0 W/m2 CLR
13:26 8.9 °F /  -12.8 °C 1.8 °F /  -16.8 °C 1022.6 in /  34625.2 hPa NNW 30.6 mph /  49.2 km/h 30.6 mph /  49.2 km/h 61 % 0.0 in /  0 mm 241.0 W/m2 CLR
13:31 8.3 °F /  -13.2 °C 0.8 °F /  -17.3 °C 1022.2 in /  34611.7 hPa North 31.5 mph /  50.7 km/h 31.5 mph /  50.7 km/h 59 % 0.0 in /  0 mm 202.0 W/m2 CLR
13:36 7.8 °F /  -13.4 °C 0.5 °F /  -17.5 °C 1022.2 in /  34611.7 hPa North 40.7 mph /  65.5 km/h 40.7 mph /  65.5 km/h 60 % 0.0 in /  0 mm 199.0 W/m2 CLR
13:41 7.8 °F /  -13.4 °C 0.7 °F /  -17.4 °C 1021.9 in /  34601.5 hPa NNE 31.5 mph /  50.7 km/h 31.5 mph /  50.7 km/h 61 % 0.0 in /  0 mm 237.0 W/m2 CLR
13:46 8.3 °F /  -13.2 °C 1.2 °F /  -17.1 °C 1021.9 in /  34601.5 hPa North 33.3 mph /  53.6 km/h 33.3 mph /  53.6 km/h 61 % 0.0 in /  0 mm 148.0 W/m2 CLR
13:51 7.8 °F /  -13.4 °C 0.7 °F /  -17.4 °C 1021.9 in /  34601.5 hPa NNE 31.5 mph /  50.7 km/h 31.5 mph /  50.7 km/h 61 % 0.0 in /  0 mm 712.0 W/m2 CLR
13:56 8.9 °F /  -12.8 °C 1.8 °F /  -16.8 °C 1021.9 in /  34601.5 hPa NNE 35.2 mph /  56.6 km/h 35.2 mph /  56.6 km/h 61 % 0.0 in /  0 mm 717.0 W/m2 CLR
14:01 8.9 °F /  -12.8 °C 1.8 °F /  -16.8 °C 1021.9 in /  34601.5 hPa North 31.5 mph /  50.7 km/h 31.5 mph /  50.7 km/h 61 % 0.0 in /  0 mm 137.0 W/m2 CLR
14:06 8.9 °F /  -12.8 °C 2.2 °F /  -16.6 °C 1021.6 in /  34591.4 hPa North 38.9 mph /  62.6 km/h 38.9 mph /  62.6 km/h 63 % 0.0 in /  0 mm 626.0 W/m2 CLR
14:11 8.9 °F /  -12.8 °C 1.8 °F /  -16.8 °C 1021.6 in /  34591.4 hPa North 38.9 mph /  62.6 km/h 38.9 mph /  62.6 km/h 61 % 0.0 in /  0 mm 598.0 W/m2 CLR
14:16 9.4 °F /  -12.6 °C 2.7 °F /  -16.3 °C 1021.2 in /  34577.8 hPa NNW 42.6 mph /  68.6 km/h 42.6 mph /  68.6 km/h 63 % 0.0 in /  0 mm 596.0 W/m2 CLR
14:21 9.4 °F /  -12.6 °C 2.5 °F /  -16.4 °C 1021.2 in /  34577.8 hPa North 33.8 mph /  54.4 km/h 33.8 mph /  54.4 km/h 62 % 0.0 in /  0 mm 577.0 W/m2 CLR
14:26 9.4 °F /  -12.6 °C 2.5 °F /  -16.4 °C 1021.2 in /  34577.8 hPa NNW 35.2 mph /  56.6 km/h 35.2 mph /  56.6 km/h 62 % 0.0 in /  0 mm 570.0 W/m2 CLR
14:31 9.4 °F /  -12.6 °C 2.5 °F /  -16.4 °C 1021.2 in /  34577.8 hPa NNW 38.9 mph /  62.6 km/h 38.9 mph /  62.6 km/h 62 % 0.0 in /  0 mm 594.0 W/m2 CLR
14:36 9.4 °F /  -12.6 °C 2.3 °F /  -16.5 °C 1021.2 in /  34577.8 hPa NNW 40.2 mph /  64.7 km/h 40.2 mph /  64.7 km/h 61 % 0.0 in /  0 mm 564.0 W/m2 CLR
14:42 10.0 °F /  -12.2 °C 3.1 °F /  -16.1 °C 1021.2 in /  34577.8 hPa NW 42.6 mph /  68.6 km/h 42.6 mph /  68.6 km/h 62 % 0.0 in /  0 mm 554.0 W/m2 CLR
14:47 10.0 °F /  -12.2 °C 2.8 °F /  -16.2 °C 1021.2 in /  34577.8 hPa North 48.1 mph /  77.4 km/h 48.1 mph /  77.4 km/h 61 % 0.0 in /  0 mm 571.0 W/m2 CLR
14:52 10.0 °F /  -12.2 °C 2.6 °F /  -16.3 °C 1020.9 in /  34567.7 hPa North 37.0 mph /  59.5 km/h 37.0 mph /  59.5 km/h 60 % 0.0 in /  0 mm 132.0 W/m2 CLR
14:57 9.4 °F /  -12.6 °C 1.8 °F /  -16.8 °C 1020.9 in /  34567.7 hPa NNW 37.0 mph /  59.5 km/h 37.0 mph /  59.5 km/h 59 % 0.0 in /  0 mm 571.0 W/m2 CLR
15:02 9.4 °F /  -12.6 °C 1.8 °F /  -16.8 °C 1020.9 in /  34567.7 hPa North 25.9 mph /  41.7 km/h 25.9 mph /  41.7 km/h 59 % 0.0 in /  0 mm 555.0 W/m2 CLR
15:07 9.4 °F /  -12.6 °C 1.6 °F /  -16.9 °C 1020.9 in /  34567.7 hPa North 37.0 mph /  59.5 km/h 37.0 mph /  59.5 km/h 58 % 0.0 in /  0 mm 559.0 W/m2 CLR
15:12 10.6 °F /  -11.9 °C 2.6 °F /  -16.3 °C 1020.9 in /  34567.7 hPa North 33.3 mph /  53.6 km/h 33.3 mph /  53.6 km/h 58 % 0.0 in /  0 mm 555.0 W/m2 CLR
15:17 10.6 °F /  -11.9 °C 2.6 °F /  -16.3 °C 1020.5 in /  34554.1 hPa North 29.6 mph /  47.6 km/h 29.6 mph /  47.6 km/h 58 % 0.0 in /  0 mm 573.0 W/m2 CLR
15:22 10.6 °F /  -11.9 °C 2.4 °F /  -16.4 °C 1020.5 in /  34554.1 hPa NNW 33.3 mph /  53.6 km/h 33.3 mph /  53.6 km/h 57 % 0.0 in /  0 mm 513.0 W/m2 CLR
15:27 10.0 °F /  -12.2 °C 1.9 °F /  -16.7 °C 1020.5 in /  34554.1 hPa NNW 44.4 mph /  71.5 km/h 44.4 mph /  71.5 km/h 57 % 0.0 in /  0 mm 494.0 W/m2 CLR
15:32 10.6 °F /  -11.9 °C 2.4 °F /  -16.4 °C 1020.5 in /  34554.1 hPa North 38.9 mph /  62.6 km/h 38.9 mph /  62.6 km/h 57 % 0.0 in /  0 mm 473.0 W/m2 CLR
15:37 10.0 °F /  -12.2 °C 1.9 °F /  -16.7 °C 1020.5 in /  34554.1 hPa North 31.5 mph /  50.7 km/h 31.5 mph /  50.7 km/h 57 % 0.0 in /  0 mm 56.0 W/m2 CLR
15:42 9.4 °F /  -12.6 °C 1.3 °F /  -17.1 °C 1020.5 in /  34554.1 hPa NNW 42.6 mph /  68.6 km/h 42.6 mph /  68.6 km/h 57 % 0.0 in /  0 mm 432.0 W/m2 FEW
15:47 10.0 °F /  -12.2 °C 1.9 °F /  -16.7 °C 1020.5 in /  34554.1 hPa NW 24.1 mph /  38.8 km/h 24.1 mph /  38.8 km/h 57 % 0.0 in /  0 mm 420.0 W/m2 FEW
15:52 9.4 °F /  -12.6 °C 1.3 °F /  -17.1 °C 1020.5 in /  34554.1 hPa NNW 33.3 mph /  53.6 km/h 33.3 mph /  53.6 km/h 57 % 0.0 in /  0 mm 408.0 W/m2 CLR
15:57 10.0 °F /  -12.2 °C 1.6 °F /  -16.9 °C 1020.5 in /  34554.1 hPa North 35.2 mph /  56.6 km/h 35.2 mph /  56.6 km/h 56 % 0.0 in /  0 mm 396.0 W/m2 CLR
16:02 9.4 °F /  -12.6 °C 0.8 °F /  -17.3 °C 1020.5 in /  34554.1 hPa North 37.0 mph /  59.5 km/h 37.0 mph /  59.5 km/h 55 % 0.0 in /  0 mm 378.0 W/m2 CLR
16:07 10.0 °F /  -12.2 °C 1.4 °F /  -17 °C 1020.5 in /  34554.1 hPa North 35.2 mph /  56.6 km/h 35.2 mph /  56.6 km/h 55 % 0.0 in /  0 mm 367.0 W/m2 CLR
16:12 10.0 °F /  -12.2 °C 1.6 °F /  -16.9 °C 1020.5 in /  34554.1 hPa North 33.8 mph /  54.4 km/h 33.8 mph /  54.4 km/h 56 % 0.0 in /  0 mm 359.0 W/m2 CLR
16:17 9.4 °F /  -12.6 °C 0.8 °F /  -17.3 °C 1020.5 in /  34554.1 hPa North 31.5 mph /  50.7 km/h 31.5 mph /  50.7 km/h 55 % 0.0 in /  0 mm 341.0 W/m2 CLR
16:22 9.4 °F /  -12.6 °C 1.1 °F /  -17.2 °C 1020.5 in /  34554.1 hPa NNW 48.3 mph /  77.7 km/h 48.3 mph /  77.7 km/h 56 % 0.0 in /  0 mm 330.0 W/m2 CLR
16:27 9.4 °F /  -12.6 °C 1.1 °F /  -17.2 °C 1020.5 in /  34554.1 hPa North 35.2 mph /  56.6 km/h 35.2 mph /  56.6 km/h 56 % 0.0 in /  0 mm 318.0 W/m2 CLR
16:32 9.4 °F /  -12.6 °C 1.3 °F /  -17.1 °C 1020.5 in /  34554.1 hPa North 31.5 mph /  50.7 km/h 31.5 mph /  50.7 km/h 57 % 0.0 in /  0 mm 301.0 W/m2 CLR
16:37 8.9 °F /  -12.8 °C 0.8 °F /  -17.3 °C 1020.5 in /  34554.1 hPa NNW 35.2 mph /  56.6 km/h 35.2 mph /  56.6 km/h 57 % 0.0 in /  0 mm 51.0 W/m2 CLR
16:42 8.9 °F /  -12.8 °C 1.1 °F /  -17.2 °C 1020.5 in /  34554.1 hPa NNW 33.8 mph /  54.4 km/h 33.8 mph /  54.4 km/h 58 % 0.0 in /  0 mm 265.0 W/m2 CLR
16:47 9.4 °F /  -12.6 °C 1.1 °F /  -17.2 °C 1020.5 in /  34554.1 hPa NNW 46.3 mph /  74.5 km/h 46.3 mph /  74.5 km/h 56 % 0.0 in /  0 mm 250.0 W/m2 CLR
16:52 8.9 °F /  -12.8 °C 0.6 °F /  -17.4 °C 1020.5 in /  34554.1 hPa NNW 33.3 mph /  53.6 km/h 33.3 mph /  53.6 km/h 56 % 0.0 in /  0 mm 234.0 W/m2 CLR
16:57 8.9 °F /  -12.8 °C 0.3 °F /  -17.6 °C 1020.5 in /  34554.1 hPa North 40.7 mph /  65.5 km/h 40.7 mph /  65.5 km/h 55 % 0.0 in /  0 mm 174.0 W/m2 CLR
17:02 8.9 °F /  -12.8 °C 0.6 °F /  -17.4 °C 1020.5 in /  34554.1 hPa NW 37.0 mph /  59.5 km/h 37.0 mph /  59.5 km/h 56 % 0.0 in /  0 mm 199.0 W/m2 CLR
17:07 8.9 °F /  -12.8 °C 0.8 °F /  -17.3 °C 1020.5 in /  34554.1 hPa North 31.5 mph /  50.7 km/h 31.5 mph /  50.7 km/h 57 % 0.0 in /  0 mm 179.0 W/m2 CLR
17:12 8.9 °F /  -12.8 °C 1.3 °F /  -17.1 °C 1020.5 in /  34554.1 hPa NW 44.4 mph /  71.5 km/h 44.4 mph /  71.5 km/h 59 % 0.0 in /  0 mm 163.0 W/m2 CLR
17:17 8.3 °F /  -13.2 °C 1.0 °F /  -17.2 °C 1020.5 in /  34554.1 hPa North 43.4 mph /  69.8 km/h 43.4 mph /  69.8 km/h 60 % 0.0 in /  0 mm 116.0 W/m2 CLR
17:22 8.3 °F /  -13.2 °C 1.2 °F /  -17.1 °C 1020.9 in /  34567.7 hPa North 27.8 mph /  44.7 km/h 27.8 mph /  44.7 km/h 61 % 0.0 in /  0 mm 44.0 W/m2 FEW
17:27 8.3 °F /  -13.2 °C 1.0 °F /  -17.2 °C 1020.9 in /  34567.7 hPa NNW 42.6 mph /  68.6 km/h 42.6 mph /  68.6 km/h 60 % 0.0 in /  0 mm 39.0 W/m2 BKN
17:32 7.8 °F /  -13.4 °C 0.5 °F /  -17.5 °C 1020.9 in /  34567.7 hPa NNW 42.6 mph /  68.6 km/h 42.6 mph /  68.6 km/h 60 % 0.0 in /  0 mm 28.0 W/m2 BKN
17:37 7.8 °F /  -13.4 °C 0.5 °F /  -17.5 °C 1020.9 in /  34567.7 hPa NNW 31.5 mph /  50.7 km/h 31.5 mph /  50.7 km/h 60 % 0.0 in /  0 mm 40.0 W/m2 BKN
17:42 7.8 °F /  -13.4 °C 0.7 °F /  -17.4 °C 1021.2 in /  34577.8 hPa North 42.6 mph /  68.6 km/h 42.6 mph /  68.6 km/h 61 % 0.0 in /  0 mm 58.0 W/m2 SCT
17:47 7.8 °F /  -13.4 °C 0.7 °F /  -17.4 °C 1021.2 in /  34577.8 hPa NW 31.5 mph /  50.7 km/h 31.5 mph /  50.7 km/h 61 % 0.0 in /  0 mm 63.0 W/m2 SCT
17:52 7.8 °F /  -13.4 °C 0.7 °F /  -17.4 °C 1021.2 in /  34577.8 hPa NNW 27.8 mph /  44.7 km/h 27.8 mph /  44.7 km/h 61 % 0.0 in /  0 mm 47.0 W/m2 SCT
17:57 7.8 °F /  -13.4 °C 0.9 °F /  -17.3 °C 1021.2 in /  34577.8 hPa NNW 33.3 mph /  53.6 km/h 33.3 mph /  53.6 km/h 62 % 0.0 in /  0 mm 39.0 W/m2 BKN
18:02 7.2 °F /  -13.8 °C 0.7 °F /  -17.4 °C 1021.2 in /  34577.8 hPa North 37.0 mph /  59.5 km/h 37.0 mph /  59.5 km/h 63 % 0.0 in /  0 mm 21.0 W/m2 BKN
18:07 7.2 °F /  -13.8 °C 0.8 °F /  -17.3 °C 1021.2 in /  34577.8 hPa NNW 31.5 mph /  50.7 km/h 31.5 mph /  50.7 km/h 64 % 0.0 in /  0 mm 16.0 W/m2 BKN
18:12 7.2 °F /  -13.8 °C 1.1 °F /  -17.2 °C 1021.2 in /  34577.8 hPa NNW 32.2 mph /  51.8 km/h 32.2 mph /  51.8 km/h 65 % 0.0 in /  0 mm 12.0 W/m2 BKN
18:17 7.2 °F /  -13.8 °C 1.1 °F /  -17.2 °C 1021.2 in /  34577.8 hPa North 38.9 mph /  62.6 km/h 38.9 mph /  62.6 km/h 65 % 0.0 in /  0 mm 11.0 W/m2 BKN
18:22 6.7 °F /  -14.1 °C 0.8 °F /  -17.3 °C 1021.2 in /  34577.8 hPa NNW 31.5 mph /  50.7 km/h 31.5 mph /  50.7 km/h 66 % 0.0 in /  0 mm 7.0 W/m2 BKN
18:27 6.7 °F /  -14.1 °C 0.8 °F /  -17.3 °C 1021.6 in /  34591.4 hPa NW 31.5 mph /  50.7 km/h 31.5 mph /  50.7 km/h 66 % 0.0 in /  0 mm 5.0 W/m2 OVC
18:32 6.7 °F /  -14.1 °C 0.8 °F /  -17.3 °C 1021.6 in /  34591.4 hPa NW 31.5 mph /  50.7 km/h 31.5 mph /  50.7 km/h 66 % 0.0 in /  0 mm 0.0 W/m2 OVC
18:37 6.7 °F /  -14.1 °C 0.8 °F /  -17.3 °C 1021.9 in /  34601.5 hPa NNW 33.8 mph /  54.4 km/h 33.8 mph /  54.4 km/h 66 % 0.0 in /  0 mm 0.0 W/m2 OVC
18:42 6.7 °F /  -14.1 °C 0.8 °F /  -17.3 °C 1021.9 in /  34601.5 hPa NNW 25.9 mph /  41.7 km/h 25.9 mph /  41.7 km/h 66 % 0.0 in /  0 mm 0.0 W/m2 CLR
18:47 6.7 °F /  -14.1 °C 0.9 °F /  -17.3 °C 1021.9 in /  34601.5 hPa NNW 29.6 mph /  47.6 km/h 29.6 mph /  47.6 km/h 67 % 0.0 in /  0 mm 0.0 W/m2 CLR
18:52 6.1 °F /  -14.4 °C 0.7 °F /  -17.4 °C 1021.9 in /  34601.5 hPa NNW 29.6 mph /  47.6 km/h 29.6 mph /  47.6 km/h 68 % 0.0 in /  0 mm 0.0 W/m2 CLR
18:57 6.1 °F /  -14.4 °C 0.7 °F /  -17.4 °C 1021.9 in /  34601.5 hPa NNW 31.5 mph /  50.7 km/h 31.5 mph /  50.7 km/h 68 % 0.0 in /  0 mm 0.0 W/m2 CLR
19:02 6.1 °F /  -14.4 °C 0.8 °F /  -17.3 °C 1022.2 in /  34611.7 hPa North 25.9 mph /  41.7 km/h 25.9 mph /  41.7 km/h 69 % 0.0 in /  0 mm 0.0 W/m2 CLR
19:07 6.1 °F /  -14.4 °C 0.8 °F /  -17.3 °C 1022.2 in /  34611.7 hPa NW 27.8 mph /  44.7 km/h 27.8 mph /  44.7 km/h 69 % 0.0 in /  0 mm 0.0 W/m2 CLR
19:12 6.1 °F /  -14.4 °C 0.8 °F /  -17.3 °C 1022.2 in /  34611.7 hPa NNW 31.5 mph /  50.7 km/h 31.5 mph /  50.7 km/h 69 % 0.0 in /  0 mm 0.0 W/m2 CLR
19:17 6.1 °F /  -14.4 °C 1.1 °F /  -17.2 °C 1022.2 in /  34611.7 hPa NNW 44.4 mph /  71.5 km/h 44.4 mph /  71.5 km/h 70 % 0.0 in /  0 mm 0.0 W/m2 CLR
19:22 6.1 °F /  -14.4 °C 1.1 °F /  -17.2 °C 1022.2 in /  34611.7 hPa North 35.2 mph /  56.6 km/h 35.2 mph /  56.6 km/h 70 % 0.0 in /  0 mm 0.0 W/m2 CLR
19:27 6.1 °F /  -14.4 °C 1.1 °F /  -17.2 °C 1022.2 in /  34611.7 hPa NW 25.9 mph /  41.7 km/h 25.9 mph /  41.7 km/h 70 % 0.0 in /  0 mm 0.0 W/m2 CLR
19:32 5.6 °F /  -14.7 °C 0.5 °F /  -17.5 °C 1022.2 in /  34611.7 hPa WNW 22.2 mph /  35.7 km/h 22.2 mph /  35.7 km/h 70 % 0.0 in /  0 mm 0.0 W/m2 CLR
19:37 5.6 °F /  -14.7 °C 0.5 °F /  -17.5 °C 1022.6 in /  34625.2 hPa NW 24.1 mph /  38.8 km/h 24.1 mph /  38.8 km/h 70 % 0.0 in /  0 mm 0.0 W/m2 CLR
19:42 5.6 °F /  -14.7 °C 0.5 °F /  -17.5 °C 1022.6 in /  34625.2 hPa NW 29.0 mph /  46.7 km/h 29.0 mph /  46.7 km/h 70 % 0.0 in /  0 mm 0.0 W/m2 CLR
19:47 5.6 °F /  -14.7 °C 0.5 °F /  -17.5 °C 1022.6 in /  34625.2 hPa NNW 29.6 mph /  47.6 km/h 29.6 mph /  47.6 km/h 70 % 0.0 in /  0 mm 0.0 W/m2 CLR
19:52 5.6 °F /  -14.7 °C 0.7 °F /  -17.4 °C 1022.6 in /  34625.2 hPa NW 22.2 mph /  35.7 km/h 22.2 mph /  35.7 km/h 71 % 0.0 in /  0 mm 0.0 W/m2 CLR
19:57 5.6 °F /  -14.7 °C 0.7 °F /  -17.4 °C 1022.6 in /  34625.2 hPa NNW 24.1 mph /  38.8 km/h 24.1 mph /  38.8 km/h 71 % 0.0 in /  0 mm 0.0 W/m2 CLR
20:02 5.6 °F /  -14.7 °C 0.7 °F /  -17.4 °C 1022.2 in /  34611.7 hPa NNW 33.3 mph /  53.6 km/h 33.3 mph /  53.6 km/h 71 % 0.0 in /  0 mm 0.0 W/m2 CLR
20:07 5.6 °F /  -14.7 °C 0.9 °F /  -17.3 °C 1022.2 in /  34611.7 hPa NW 31.5 mph /  50.7 km/h 31.5 mph /  50.7 km/h 72 % 0.0 in /  0 mm 0.0 W/m2 CLR
20:12 5.6 °F /  -14.7 °C 0.7 °F /  -17.4 °C 1022.6 in /  34625.2 hPa WNW 24.1 mph /  38.8 km/h 24.1 mph /  38.8 km/h 71 % 0.0 in /  0 mm 0.0 W/m2 CLR
20:17 5.0 °F /  -15 °C 0.2 °F /  -17.7 °C 1022.6 in /  34625.2 hPa NW 31.5 mph /  50.7 km/h 31.5 mph /  50.7 km/h 71 % 0.0 in /  0 mm 0.0 W/m2 CLR
20:22 5.0 °F /  -15 °C 0.2 °F /  -17.7 °C 1022.6 in /  34625.2 hPa NW 24.1 mph /  38.8 km/h 24.1 mph /  38.8 km/h 71 % 0.0 in /  0 mm 0.0 W/m2 CLR
20:27 5.0 °F /  -15 °C 0.4 °F /  -17.6 °C 1022.6 in /  34625.2 hPa NW 24.1 mph /  38.8 km/h 24.1 mph /  38.8 km/h 72 % 0.0 in /  0 mm 0.0 W/m2 CLR
20:32 5.0 °F /  -15 °C 0.4 °F /  -17.6 °C 1022.6 in /  34625.2 hPa NW 24.1 mph /  38.8 km/h 24.1 mph /  38.8 km/h 72 % 0.0 in /  0 mm 0.0 W/m2 CLR
20:37 5.0 °F /  -15 °C 0.6 °F /  -17.4 °C 1022.6 in /  34625.2 hPa NNW 25.7 mph /  41.4 km/h 25.7 mph /  41.4 km/h 73 % 0.0 in /  0 mm 0.0 W/m2 CLR
20:43 5.0 °F /  -15 °C 0.6 °F /  -17.4 °C 1022.6 in /  34625.2 hPa NNW 27.8 mph /  44.7 km/h 27.8 mph /  44.7 km/h 73 % 0.0 in /  0 mm 0.0 W/m2 CLR
20:48 5.0 °F /  -15 °C 0.6 °F /  -17.4 °C 1022.6 in /  34625.2 hPa NNW 20.4 mph /  32.8 km/h 20.4 mph /  32.8 km/h 73 % 0.0 in /  0 mm 0.0 W/m2 CLR
20:53 5.0 °F /  -15 °C 0.6 °F /  -17.4 °C 1022.6 in /  34625.2 hPa NW 25.7 mph /  41.4 km/h 25.7 mph /  41.4 km/h 73 % 0.0 in /  0 mm 0.0 W/m2 CLR
20:58 5.0 °F /  -15 °C 0.6 °F /  -17.4 °C 1022.6 in /  34625.2 hPa NNW 20.4 mph /  32.8 km/h 20.4 mph /  32.8 km/h 73 % 0.0 in /  0 mm 0.0 W/m2 CLR
21:03 5.0 °F /  -15 °C 0.7 °F /  -17.4 °C 1022.6 in /  34625.2 hPa North 29.6 mph /  47.6 km/h 29.6 mph /  47.6 km/h 74 % 0.0 in /  0 mm 0.0 W/m2 CLR
21:08 5.0 °F /  -15 °C 0.7 °F /  -17.4 °C 1022.9 in /  34635.4 hPa NW 25.9 mph /  41.7 km/h 25.9 mph /  41.7 km/h 74 % 0.0 in /  0 mm 0.0 W/m2 CLR
21:18 5.0 °F /  -15 °C 0.9 °F /  -17.3 °C 1022.6 in /  34625.2 hPa NNW 25.7 mph /  41.4 km/h 25.7 mph /  41.4 km/h 75 % 0.0 in /  0 mm 0.0 W/m2 CLR
21:23 5.0 °F /  -15 °C 0.9 °F /  -17.3 °C 1022.9 in /  34635.4 hPa NW 20.9 mph /  33.6 km/h 20.9 mph /  33.6 km/h 75 % 0.0 in /  0 mm 0.0 W/m2 CLR
21:28 5.0 °F /  -15 °C 0.9 °F /  -17.3 °C 1022.9 in /  34635.4 hPa WNW 24.1 mph /  38.8 km/h 24.1 mph /  38.8 km/h 75 % 0.0 in /  0 mm 0.0 W/m2 CLR
21:33 5.0 °F /  -15 °C 0.9 °F /  -17.3 °C 1022.9 in /  34635.4 hPa NW 24.1 mph /  38.8 km/h 24.1 mph /  38.8 km/h 75 % 0.0 in /  0 mm 0.0 W/m2 CLR
21:38 4.4 °F /  -15.3 °C 0.4 °F /  -17.6 °C 1022.9 in /  34635.4 hPa NW 16.7 mph /  26.9 km/h 16.7 mph /  26.9 km/h 75 % 0.0 in /  0 mm 0.0 W/m2 CLR
21:43 4.4 °F /  -15.3 °C 0.4 °F /  -17.6 °C 1022.9 in /  34635.4 hPa NW 25.9 mph /  41.7 km/h 25.9 mph /  41.7 km/h 75 % 0.0 in /  0 mm 0.0 W/m2 CLR
21:48 4.4 °F /  -15.3 °C 0.4 °F /  -17.6 °C 1022.9 in /  34635.4 hPa NNW 25.9 mph /  41.7 km/h 25.9 mph /  41.7 km/h 75 % 0.0 in /  0 mm 0.0 W/m2 CLR
21:53 4.4 °F /  -15.3 °C 0.6 °F /  -17.4 °C 1022.6 in /  34625.2 hPa NW 24.1 mph /  38.8 km/h 24.1 mph /  38.8 km/h 76 % 0.0 in /  0 mm 0.0 W/m2 CLR
21:58 4.4 °F /  -15.3 °C 0.6 °F /  -17.4 °C 1022.9 in /  34635.4 hPa NW 25.9 mph /  41.7 km/h 25.9 mph /  41.7 km/h 76 % 0.0 in /  0 mm 0.0 W/m2 CLR
22:03 4.4 °F /  -15.3 °C 0.6 °F /  -17.4 °C 1022.9 in /  34635.4 hPa North 20.4 mph /  32.8 km/h 20.4 mph /  32.8 km/h 76 % 0.0 in /  0 mm 0.0 W/m2 CLR
22:08 4.4 °F /  -15.3 °C 0.6 °F /  -17.4 °C 1022.9 in /  34635.4 hPa NW 20.4 mph /  32.8 km/h 20.4 mph /  32.8 km/h 76 % 0.0 in /  0 mm 0.0 W/m2 CLR
22:13 4.4 °F /  -15.3 °C 0.6 °F /  -17.4 °C 1022.9 in /  34635.4 hPa NW 24.1 mph /  38.8 km/h 24.1 mph /  38.8 km/h 76 % 0.0 in /  0 mm 0.0 W/m2 CLR
22:18 4.4 °F /  -15.3 °C 0.6 °F /  -17.4 °C 1022.9 in /  34635.4 hPa WNW 25.9 mph /  41.7 km/h 25.9 mph /  41.7 km/h 76 % 0.0 in /  0 mm 0.0 W/m2 CLR
22:23 4.4 °F /  -15.3 °C 0.6 °F /  -17.4 °C 1022.9 in /  34635.4 hPa WNW 16.7 mph /  26.9 km/h 16.7 mph /  26.9 km/h 76 % 0.0 in /  0 mm 0.0 W/m2 CLR
22:28 4.4 °F /  -15.3 °C 0.6 °F /  -17.4 °C 1022.9 in /  34635.4 hPa West 18.5 mph /  29.8 km/h 18.5 mph /  29.8 km/h 76 % 0.0 in /  0 mm 0.0 W/m2 CLR
22:33 4.4 °F /  -15.3 °C 0.6 °F /  -17.4 °C 1022.9 in /  34635.4 hPa WNW 16.7 mph /  26.9 km/h 16.7 mph /  26.9 km/h 76 % 0.0 in /  0 mm 0.0 W/m2 CLR
22:38 3.9 °F /  -15.6 °C 0.2 °F /  -17.7 °C 1023.2 in /  34645.6 hPa West 16.7 mph /  26.9 km/h 16.7 mph /  26.9 km/h 77 % 0.0 in /  0 mm 0.0 W/m2 CLR
22:43 3.9 °F /  -15.6 °C 0.2 °F /  -17.7 °C 1023.2 in /  34645.6 hPa West 14.8 mph /  23.8 km/h 14.8 mph /  23.8 km/h 77 % 0.0 in /  0 mm 0.0 W/m2 CLR
22:48 3.9 °F /  -15.6 °C 0.4 °F /  -17.6 °C 1023.2 in /  34645.6 hPa WNW 13.0 mph /  20.9 km/h 13.0 mph /  20.9 km/h 78 % 0.0 in /  0 mm 0.0 W/m2 CLR
22:53 3.9 °F /  -15.6 °C 0.4 °F /  -17.6 °C 1023.2 in /  34645.6 hPa West 16.7 mph /  26.9 km/h 16.7 mph /  26.9 km/h 78 % 0.0 in /  0 mm 0.0 W/m2 CLR
22:54 3.9 °F /  -15.6 °C 0.4 °F /  -17.6 °C 1023.2 in /  34645.6 hPa West 14.8 mph /  23.8 km/h 14.8 mph /  23.8 km/h 78 % 0.0 in /  0 mm 0.0 W/m2 CLR
22:59 3.3 °F /  -15.9 °C 0.1 °F /  -17.7 °C 1023.2 in /  34645.6 hPa WNW 16.7 mph /  26.9 km/h 16.7 mph /  26.9 km/h 79 % 0.0 in /  0 mm 0.0 W/m2 CLR
23:04 3.3 °F /  -15.9 °C 0.1 °F /  -17.7 °C 1023.2 in /  34645.6 hPa NW 13.0 mph /  20.9 km/h 13.0 mph /  20.9 km/h 79 % 0.0 in /  0 mm 0.0 W/m2 CLR
23:09 3.3 °F /  -15.9 °C 0.2 °F /  -17.7 °C 1023.2 in /  34645.6 hPa WNW 18.5 mph /  29.8 km/h 18.5 mph /  29.8 km/h 80 % 0.0 in /  0 mm 0.0 W/m2 CLR
23:14 3.3 °F /  -15.9 °C 0.1 °F /  -17.7 °C 1023.2 in /  34645.6 hPa NW 16.7 mph /  26.9 km/h 16.7 mph /  26.9 km/h 79 % 0.0 in /  0 mm 0.0 W/m2 CLR
23:19 3.3 °F /  -15.9 °C 0.2 °F /  -17.7 °C 1023.2 in /  34645.6 hPa NW 22.2 mph /  35.7 km/h 22.2 mph /  35.7 km/h 80 % 0.0 in /  0 mm 0.0 W/m2 CLR
23:24 3.3 °F /  -15.9 °C 0.1 °F /  -17.7 °C 1023.2 in /  34645.6 hPa NW 14.8 mph /  23.8 km/h 14.8 mph /  23.8 km/h 79 % 0.0 in /  0 mm 0.0 W/m2 CLR
23:29 3.9 °F /  -15.6 °C 0.6 °F /  -17.4 °C 1023.2 in /  34645.6 hPa NW 14.8 mph /  23.8 km/h 14.8 mph /  23.8 km/h 79 % 0.0 in /  0 mm 0.0 W/m2 CLR
23:34 3.9 °F /  -15.6 °C 0.6 °F /  -17.4 °C 1022.9 in /  34635.4 hPa WNW 16.7 mph /  26.9 km/h 16.7 mph /  26.9 km/h 79 % 0.0 in /  0 mm 0.0 W/m2 CLR
23:39 3.9 °F /  -15.6 °C 0.8 °F /  -17.3 °C 1022.9 in /  34635.4 hPa NW 18.5 mph /  29.8 km/h 18.5 mph /  29.8 km/h 80 % 0.0 in /  0 mm 0.0 W/m2 CLR
23:44 3.9 °F /  -15.6 °C 0.6 °F /  -17.4 °C 1022.9 in /  34635.4 hPa NW 20.4 mph /  32.8 km/h 20.4 mph /  32.8 km/h 79 % 0.0 in /  0 mm 0.0 W/m2 CLR
23:49 3.9 °F /  -15.6 °C 0.6 °F /  -17.4 °C 1022.9 in /  34635.4 hPa NW 18.5 mph /  29.8 km/h 18.5 mph /  29.8 km/h 79 % 0.0 in /  0 mm 0.0 W/m2 CLR
23:54 3.9 °F /  -15.6 °C 0.8 °F /  -17.3 °C 1022.9 in /  34635.4 hPa WNW 22.2 mph /  35.7 km/h 22.2 mph /  35.7 km/h 80 % 0.0 in /  0 mm 0.0 W/m2 CLR
23:59 3.9 °F /  -15.6 °C 0.8 °F /  -17.3 °C 1022.9 in /  34635.4 hPa WNW 16.7 mph /  26.9 km/h 16.7 mph /  26.9 km/h 80 % 0.0 in /  0 mm 0.0 W/m2 CLR
Lo Temps de Massalio
Compliments of Weather Underground - 1.25 mb